»·PEaware :: DAL2613 KSLC-KDEN

DAL2613 :: KSLC-KDEN

FLIGHT INFORMATION

Flight Status: Arrived
Operator:
Delta Air Lines
More flights by this operator :: More flights under this callsign
Pilot: Alfredo R. (12181)
Aircraft: BOEING 737-800
(B738)
More flights by this aircraft type
Origin: KSLC Salt Lake City Intl
United States
Destination: KDEN Denver Intl
United States
More flights between these airports :: More routes between these airports
Route: RUGGD1 PERTY KAMPR LONGZ1
File this flight plan on PilotEdge
Remarks:
Altitude:
(Current/Filed)
390ft
Speed:
(Current/Filed)
425kts
Departed: 08-Aug-20 07:34 PM
Arrived: 08-Aug-20 08:35 PM
Distance/Time
Traveled:
339nm/1:01
Distance/Time
To Go:
Arrived

Flight Plot

Page will automatically refresh every two minutes.

Flight plan parsing failed; only flown route is shown


Map Options




Map Legend


Flown Route
Filed Route
Departure Airport
Arrival Airport
Navaid (VOR, NDB)
Fix

Horizontal Profiles

Position Reports

Time Latitude Longitude Heading Altitude Ground
Speed
08-Aug-20 18:42 40.787355 -111.981181 283 4237ft 0kts
08-Aug-20 18:43 40.787355 -111.981181 283 4237ft 0kts
08-Aug-20 18:44 40.787355 -111.981181 283 4237ft 0kts
08-Aug-20 18:45 40.787355 -111.981181 283 4237ft 0kts
08-Aug-20 18:46 40.787355 -111.981181 283 4237ft 0kts
08-Aug-20 18:47 40.787355 -111.981181 283 4237ft 0kts
08-Aug-20 18:48 40.787355 -111.981181 283 4237ft 0kts
08-Aug-20 18:49 40.787355 -111.981181 283 4237ft 0kts
08-Aug-20 18:50 40.787355 -111.981181 283 4237ft 0kts
08-Aug-20 18:51 40.787355 -111.981181 283 4237ft 0kts
08-Aug-20 18:52 40.787355 -111.981181 283 4237ft 0kts
08-Aug-20 18:53 40.787355 -111.981181 283 4237ft 0kts
08-Aug-20 18:54 40.787355 -111.981181 283 4237ft 0kts
08-Aug-20 18:55 40.787355 -111.981181 283 4237ft 0kts
08-Aug-20 18:56 40.787355 -111.981181 283 4237ft 0kts
08-Aug-20 18:57 40.787355 -111.981181 283 4237ft 0kts
08-Aug-20 18:58 40.787355 -111.981181 283 4237ft 0kts
08-Aug-20 18:59 40.787355 -111.981181 283 4237ft 0kts
08-Aug-20 19:00 40.787355 -111.981181 283 4237ft 0kts
08-Aug-20 19:01 40.787355 -111.981181 283 4237ft 0kts
08-Aug-20 19:02 40.787355 -111.981181 283 4237ft 0kts
08-Aug-20 19:03 40.787355 -111.981181 283 4237ft 0kts
08-Aug-20 19:04 40.787355 -111.981181 283 4237ft 0kts
08-Aug-20 19:05 40.787355 -111.981181 283 4237ft 0kts
08-Aug-20 19:06 40.787355 -111.981181 283 4237ft 0kts
08-Aug-20 19:07 40.787355 -111.981181 283 4237ft 0kts
08-Aug-20 19:08 40.787355 -111.981181 283 4237ft 0kts
08-Aug-20 19:09 40.787286 -111.980646 247 4237ft 2kts
08-Aug-20 19:10 40.787166 -111.980087 325 4237ft 2kts
08-Aug-20 19:11 40.787702 -111.980241 9 4237ft 4kts
08-Aug-20 19:12 40.788424 -111.979922 19 4237ft 0kts
08-Aug-20 19:13 40.788424 -111.979921 19 4237ft 0kts
08-Aug-20 19:14 40.788424 -111.979921 19 4237ft 0kts
08-Aug-20 19:15 40.788424 -111.979921 19 4237ft 0kts
08-Aug-20 19:16 40.789278 -111.979891 355 4237ft 3kts
08-Aug-20 19:17 40.789940 -111.979786 37 4237ft 6kts
08-Aug-20 19:18 40.790428 -111.979469 5 4237ft 0kts
08-Aug-20 19:19 40.790428 -111.979469 5 4237ft 0kts
08-Aug-20 19:20 40.790428 -111.979469 5 4237ft 0kts
08-Aug-20 19:21 40.790428 -111.979469 5 4237ft 0kts
08-Aug-20 19:22 40.791093 -111.979492 354 4237ft 7kts
08-Aug-20 19:23 40.791816 -111.977356 155 4237ft 10kts
08-Aug-20 19:25 40.788549 -111.976921 176 4237ft 14kts
08-Aug-20 19:26 40.784461 -111.976443 175 4237ft 15kts
08-Aug-20 19:27 40.780501 -111.975977 174 4237ft 13kts
08-Aug-20 19:28 40.776716 -111.975042 175 4237ft 15kts
08-Aug-20 19:29 40.774748 -111.974765 153 4237ft 0kts
08-Aug-20 19:30 40.774748 -111.974765 153 4237ft 0kts
08-Aug-20 19:31 40.774748 -111.974765 153 4237ft 0kts
08-Aug-20 19:32 40.775124 -111.973344 22 4237ft 8kts
08-Aug-20 19:33 40.775841 -111.973282 355 4237ft 0kts
08-Aug-20 19:34 40.792800 -111.975258 355 4238ft 157kts
08-Aug-20 19:35 40.845224 -111.984590 343 4746ft 219kts
08-Aug-20 19:36 40.883398 -112.039699 305 7162ft 200kts
08-Aug-20 19:37 40.924483 -112.111811 306 8253ft 266kts
08-Aug-20 19:38 40.983610 -112.179209 357 10413ft 324kts
08-Aug-20 19:39 41.040798 -112.088666 82 12701ft 362kts
08-Aug-20 19:40 41.064293 -111.958194 62 15553ft 379kts
08-Aug-20 19:41 41.108775 -111.833071 77 18143ft 394kts
08-Aug-20 19:42 41.086429 -111.695166 126 20622ft 399kts
08-Aug-20 19:42 41.029981 -111.597090 130 22440ft 409kts
08-Aug-20 19:44 40.945806 -111.458255 128 24687ft 426kts
08-Aug-20 19:44 40.904556 -111.341893 105 26204ft 438kts
08-Aug-20 19:45 40.884299 -111.184729 99 27769ft 451kts
08-Aug-20 19:47 40.861240 -110.990813 99 29445ft 462kts
08-Aug-20 19:47 40.844109 -110.848333 99 30460ft 470kts
08-Aug-20 19:48 40.825001 -110.690729 100 31793ft 470kts
08-Aug-20 19:49 40.804028 -110.519849 99 33202ft 469kts
08-Aug-20 19:50 40.783008 -110.349744 101 34727ft 465kts
08-Aug-20 19:51 40.761552 -110.180016 101 35675ft 469kts
08-Aug-20 19:52 40.741036 -110.009025 98 36564ft 473kts
08-Aug-20 19:53 40.728903 -109.833605 97 37325ft 478kts
08-Aug-20 19:54 40.716841 -109.656003 97 38110ft 480kts
08-Aug-20 19:55 40.704606 -109.476844 97 38943ft 482kts
08-Aug-20 19:56 40.692056 -109.298617 98 39136ft 481kts
08-Aug-20 19:57 40.679535 -109.124301 98 39136ft 477kts
08-Aug-20 19:58 40.667111 -108.948934 97 39138ft 478kts
08-Aug-20 19:59 40.655574 -108.773960 97 39137ft 480kts
08-Aug-20 20:00 40.643869 -108.597107 97 39166ft 486kts
08-Aug-20 20:01 40.632050 -108.419162 97 39164ft 485kts
08-Aug-20 20:02 40.620396 -108.247201 98 39248ft 484kts
08-Aug-20 20:03 40.608216 -108.070729 98 39245ft 483kts
08-Aug-20 20:04 40.595552 -107.892265 98 39245ft 482kts
08-Aug-20 20:05 40.582669 -107.714969 98 39246ft 482kts
08-Aug-20 20:06 40.568651 -107.539218 98 39245ft 480kts
08-Aug-20 20:07 40.555041 -107.365914 98 38100ft 472kts
08-Aug-20 20:08 40.542322 -107.200787 98 36654ft 468kts
08-Aug-20 20:09 40.529302 -107.033968 98 35184ft 469kts
08-Aug-20 20:10 40.515837 -106.864521 98 33569ft 471kts
08-Aug-20 20:11 40.501953 -106.692943 97 31758ft 471kts
08-Aug-20 20:12 40.487778 -106.521004 97 29948ft 472kts
08-Aug-20 20:13 40.471736 -106.351389 98 28132ft 459kts
08-Aug-20 20:14 40.456592 -106.186147 98 26340ft 454kts
08-Aug-20 20:15 40.442229 -106.025316 98 24521ft 427kts
08-Aug-20 20:16 40.426265 -105.874519 103 22721ft 410kts
08-Aug-20 20:17 40.403391 -105.728633 102 20902ft 400kts
08-Aug-20 20:18 40.381347 -105.589619 102 19204ft 387kts
08-Aug-20 20:19 40.360708 -105.461598 101 17985ft 340kts
08-Aug-20 20:20 40.341661 -105.341285 100 16806ft 337kts
08-Aug-20 20:21 40.326578 -105.227726 100 15730ft 288kts
08-Aug-20 20:22 40.312889 -105.126771 100 14734ft 277kts
08-Aug-20 20:23 40.299446 -105.028425 101 13731ft 269kts
08-Aug-20 20:24 40.286281 -104.932992 102 12718ft 258kts
08-Aug-20 20:25 40.273738 -104.840807 102 11708ft 253kts
08-Aug-20 20:26 40.259334 -104.753155 115 10696ft 224kts
08-Aug-20 20:27 40.221723 -104.693008 154 9786ft 203kts
08-Aug-20 20:28 40.167149 -104.683350 178 9007ft 204kts
08-Aug-20 20:29 40.109773 -104.684367 177 8213ft 208kts
08-Aug-20 20:30 40.052531 -104.685027 177 7713ft 205kts
08-Aug-20 20:31 39.999900 -104.685652 176 7230ft 180kts
08-Aug-20 20:32 39.954320 -104.686170 176 6484ft 153kts
08-Aug-20 20:33 39.912608 -104.686647 177 5641ft 150kts
08-Aug-20 20:34 39.885082 -104.684559 103 5370ft 29kts
08-Aug-20 20:35 39.877952 -104.684859 178 5346ft 36kts
08-Aug-20 20:36 39.870388 -104.684927 180 5350ft 20kts
08-Aug-20 20:37 39.864323 -104.685004 180 5328ft 22kts
08-Aug-20 20:38 39.858822 -104.685057 179 5327ft 17kts
08-Aug-20 20:39 39.854015 -104.685118 181 5318ft 15kts
08-Aug-20 20:40 39.853286 -104.682441 61 5334ft 13kts
08-Aug-20 20:41 39.855966 -104.680162 89 5355ft 11kts
08-Aug-20 20:42 39.855095 -104.676863 98 5377ft 9kts
08-Aug-20 20:43 39.854455 -104.676079 148 5381ft 1kts
08-Aug-20 20:44 39.854332 -104.675987 150 5381ft 0kts
08-Aug-20 20:45 39.854332 -104.675987 150 5381ft 0kts

Navigation Log

Ident Type
Flight plan parsing failed, navigation log unavailable